createdAt,value
2023-04-07T00:00:26.846Z,6.50
2023-04-07T00:03:14.514Z,6.50
2023-04-07T00:06:02.115Z,6.40
2023-04-07T00:08:49.548Z,6.40
2023-04-07T00:11:37.463Z,6.40
2023-04-07T00:14:25.458Z,6.40
2023-04-07T00:17:12.934Z,6.40
2023-04-07T00:20:00.531Z,6.40
2023-04-07T00:22:48.284Z,6.40
2023-04-07T00:25:35.929Z,6.40
2023-04-07T00:28:23.555Z,6.40
2023-04-07T00:31:11.129Z,6.40
2023-04-07T00:33:58.651Z,6.40
2023-04-07T00:36:51.909Z,6.40
2023-04-07T00:39:39.503Z,6.50
2023-04-07T00:42:26.983Z,6.40
2023-04-07T00:45:14.470Z,6.40
2023-04-07T00:48:02.036Z,6.40
2023-04-07T00:50:49.846Z,6.40
2023-04-07T00:53:37.400Z,6.40
2023-04-07T00:56:25.632Z,6.40
2023-04-07T00:59:13.228Z,6.30
2023-04-07T01:02:16.263Z,6.40
2023-04-07T01:05:26.033Z,6.40
2023-04-07T01:08:21.595Z,6.30
2023-04-07T01:11:20.026Z,6.30
2023-04-07T01:14:10.790Z,6.40
2023-04-07T01:17:01.193Z,6.40
2023-04-07T01:20:07.914Z,6.40
2023-04-07T01:22:59.183Z,6.30
2023-04-07T01:25:52.441Z,6.50
2023-04-07T01:29:11.323Z,6.40
2023-04-07T01:32:02.075Z,6.40
2023-04-07T01:34:50.725Z,6.50
2023-04-07T01:37:39.507Z,6.50
2023-04-07T01:40:28.075Z,6.60
2023-04-07T01:43:17.075Z,6.50
2023-04-07T01:46:05.313Z,6.40
2023-04-07T01:48:53.195Z,6.40
2023-04-07T01:51:41.539Z,6.40
2023-04-07T01:54:29.446Z,6.60
2023-04-07T01:57:17.049Z,6.60
2023-04-07T02:00:06.125Z,6.70
2023-04-07T02:02:59.601Z,6.90
2023-04-07T02:05:49.637Z,7.10
2023-04-07T02:08:42.476Z,7.30
2023-04-07T02:11:33.395Z,6.90
2023-04-07T02:14:22.817Z,6.90
2023-04-07T02:17:11.700Z,6.90
2023-04-07T02:20:01.406Z,7.10
2023-04-07T02:22:49.117Z,6.80
2023-04-07T02:25:38.502Z,7.10
2023-04-07T02:28:26.065Z,6.90
2023-04-07T02:31:13.836Z,6.90
2023-04-07T02:34:01.489Z,7.00
2023-04-07T02:36:48.991Z,6.80
2023-04-07T02:39:36.558Z,6.80
2023-04-07T02:42:25.000Z,6.80
2023-04-07T02:45:13.055Z,6.80
2023-04-07T02:48:00.857Z,6.90
2023-04-07T02:50:48.422Z,6.80
2023-04-07T02:53:36.199Z,7.00
2023-04-07T02:56:23.721Z,7.00
2023-04-07T02:59:11.149Z,7.00
2023-04-07T03:01:58.812Z,7.00
2023-04-07T03:04:46.325Z,6.90
2023-04-07T03:07:34.163Z,7.10
2023-04-07T03:10:21.588Z,7.20
2023-04-07T03:13:09.080Z,7.20
2023-04-07T03:15:57.302Z,7.00
2023-04-07T03:18:45.521Z,7.00
2023-04-07T03:21:33.080Z,6.90
2023-04-07T03:24:20.737Z,6.80
2023-04-07T03:27:08.340Z,6.90
2023-04-07T03:29:56.195Z,7.10
2023-04-07T03:32:44.007Z,7.00
2023-04-07T03:35:31.813Z,6.90
2023-04-07T03:38:19.493Z,7.00
2023-04-07T03:41:07.014Z,7.00
2023-04-07T03:43:54.612Z,7.00
2023-04-07T03:46:42.332Z,7.00
2023-04-07T03:49:31.007Z,6.90
2023-04-07T03:52:18.839Z,7.00
2023-04-07T03:55:07.047Z,6.90
2023-04-07T03:57:54.558Z,7.10
2023-04-07T04:00:42.090Z,7.20
2023-04-07T04:03:29.584Z,7.10
2023-04-07T04:06:17.280Z,7.10
2023-04-07T04:09:04.795Z,7.00
2023-04-07T04:11:52.293Z,6.90
2023-04-07T04:14:39.941Z,6.90
2023-04-07T04:17:27.437Z,6.90
2023-04-07T04:20:14.917Z,6.80
2023-04-07T04:23:02.411Z,7.00
2023-04-07T04:25:49.906Z,7.00
2023-04-07T04:28:39.097Z,7.00
2023-04-07T04:31:26.727Z,7.10
2023-04-07T04:34:14.310Z,7.30
2023-04-07T04:37:01.992Z,7.40
2023-04-07T04:39:49.671Z,7.40
2023-04-07T04:42:37.184Z,7.20
2023-04-07T04:45:24.690Z,7.00
2023-04-07T04:48:12.166Z,7.30
2023-04-07T04:50:59.705Z,7.30
2023-04-07T04:53:47.765Z,7.40
2023-04-07T04:56:35.245Z,7.40
2023-04-07T04:59:23.717Z,7.30
2023-04-07T05:02:11.824Z,7.10
2023-04-07T05:04:59.475Z,7.10
2023-04-07T05:07:47.257Z,7.00
2023-04-07T05:10:38.998Z,7.10
2023-04-07T05:13:26.480Z,7.30
2023-04-07T05:16:14.064Z,7.10
2023-04-07T05:19:01.891Z,7.30
2023-04-07T05:21:49.361Z,7.30
2023-04-07T05:24:36.897Z,7.10
2023-04-07T05:27:24.401Z,7.00
2023-04-07T05:30:12.622Z,6.90
2023-04-07T05:33:00.297Z,6.70
2023-04-07T05:35:48.426Z,7.00
2023-04-07T05:38:36.395Z,7.10
2023-04-07T05:41:23.888Z,7.20
2023-04-07T05:44:11.926Z,7.10
2023-04-07T05:46:59.381Z,7.20
2023-04-07T05:49:47.279Z,7.30
2023-04-07T05:52:34.813Z,7.00
2023-04-07T05:55:22.818Z,7.10
2023-04-07T05:58:10.310Z,7.30
2023-04-07T06:00:57.819Z,7.30
2023-04-07T06:03:45.406Z,7.30
2023-04-07T06:06:33.592Z,7.40
2023-04-07T06:09:24.593Z,7.30
2023-04-07T06:12:12.689Z,7.40
2023-04-07T06:15:00.402Z,7.40
2023-04-07T06:17:47.970Z,7.20
2023-04-07T06:20:35.823Z,7.20
2023-04-07T06:23:23.379Z,7.40
2023-04-07T06:26:14.526Z,7.50
2023-04-07T06:29:02.081Z,7.60
2023-04-07T06:31:49.961Z,7.60
2023-04-07T06:34:37.382Z,7.80
2023-04-07T06:37:26.113Z,7.60
2023-04-07T06:40:13.525Z,7.60
2023-04-07T06:43:01.310Z,7.40
2023-04-07T06:45:48.882Z,7.50
2023-04-07T06:48:36.358Z,7.80
2023-04-07T06:51:23.793Z,7.80
2023-04-07T06:54:14.904Z,7.80
2023-04-07T06:57:02.626Z,7.90
2023-04-07T06:59:50.520Z,8.00
2023-04-07T07:02:38.329Z,7.80
2023-04-07T07:05:26.211Z,7.80
2023-04-07T07:08:13.664Z,7.80
2023-04-07T07:11:01.068Z,7.90
2023-04-07T07:13:50.737Z,7.70
2023-04-07T07:16:38.215Z,7.80
2023-04-07T07:19:25.820Z,7.60
2023-04-07T07:22:13.322Z,7.70
2023-04-07T07:25:00.927Z,7.60
2023-04-07T07:27:53.603Z,7.70
2023-04-07T07:30:41.597Z,7.80
2023-04-07T07:33:29.091Z,7.70
2023-04-07T07:36:16.568Z,7.90
2023-04-07T07:39:05.471Z,7.70
2023-04-07T07:41:53.042Z,7.90
2023-04-07T07:44:40.436Z,8.00
2023-04-07T07:47:27.944Z,8.10
2023-04-07T07:50:15.787Z,7.90
2023-04-07T07:53:03.289Z,7.40
2023-04-07T07:55:51.076Z,7.90
2023-04-07T07:58:38.592Z,8.40
2023-04-07T08:01:27.424Z,8.50
2023-04-07T08:04:15.051Z,8.20
2023-04-07T08:07:03.266Z,7.70
2023-04-07T08:09:50.882Z,7.40
2023-04-07T08:12:38.445Z,7.30
2023-04-07T08:15:26.683Z,7.40
2023-04-07T08:18:14.345Z,7.40
2023-04-07T08:21:01.795Z,7.40
2023-04-07T08:23:49.534Z,7.40
2023-04-07T08:26:37.513Z,7.70
2023-04-07T08:29:25.029Z,7.90
2023-04-07T08:32:12.556Z,8.00
2023-04-07T08:35:00.223Z,8.10
2023-04-07T08:37:47.704Z,8.60
2023-04-07T08:40:35.278Z,8.90
2023-04-07T08:43:23.136Z,8.90
2023-04-07T08:46:11.484Z,8.90
2023-04-07T08:49:00.939Z,9.10
2023-04-07T08:51:48.947Z,9.00
2023-04-07T08:54:36.844Z,8.40
2023-04-07T08:57:24.552Z,8.10
2023-04-07T09:00:13.088Z,8.20
2023-04-07T09:03:01.002Z,8.80
2023-04-07T09:05:51.259Z,8.90
2023-04-07T09:08:38.764Z,8.70
2023-04-07T09:11:28.114Z,8.50
2023-04-07T09:14:16.283Z,8.30
2023-04-07T09:17:03.983Z,8.70
2023-04-07T09:19:52.568Z,9.10
2023-04-07T09:22:45.957Z,9.10
2023-04-07T09:25:33.992Z,8.60
2023-04-07T09:28:22.754Z,8.70
2023-04-07T09:31:10.481Z,8.60
2023-04-07T09:33:59.769Z,8.80
2023-04-07T09:36:47.195Z,8.90
2023-04-07T09:39:48.308Z,8.80
2023-04-07T09:42:37.946Z,8.90
2023-04-07T09:48:21.905Z,8.70
2023-04-07T09:51:17.779Z,8.60
2023-04-07T09:54:05.294Z,8.80
2023-04-07T09:56:52.768Z,8.90
2023-04-07T09:59:45.115Z,8.90
2023-04-07T10:02:32.970Z,8.70
2023-04-07T10:05:23.703Z,8.70
2023-04-07T10:08:11.532Z,8.70
2023-04-07T10:11:03.581Z,8.80
2023-04-07T10:13:51.806Z,8.70
2023-04-07T10:16:39.748Z,8.50
2023-04-07T10:19:31.400Z,8.60
2023-04-07T10:22:20.074Z,8.50
2023-04-07T10:25:11.514Z,8.60
2023-04-07T10:28:08.036Z,8.80
2023-04-07T10:30:56.014Z,8.60
2023-04-07T10:33:52.863Z,8.80
2023-04-07T10:37:10.750Z,9.10
2023-04-07T10:40:20.082Z,9.20
2023-04-07T10:43:09.697Z,9.30
2023-04-07T10:45:59.851Z,9.30
2023-04-07T10:49:09.851Z,9.40
2023-04-07T10:52:12.886Z,9.70
2023-04-07T10:55:28.322Z,10.20
2023-04-07T10:58:17.353Z,10.20
2023-04-07T11:01:08.384Z,9.90
2023-04-07T11:03:58.336Z,9.70
2023-04-07T11:06:48.992Z,10.00
2023-04-07T11:09:36.900Z,10.10
2023-04-07T11:12:24.688Z,10.10
2023-04-07T11:15:20.037Z,10.30
2023-04-07T11:18:11.467Z,9.90
2023-04-07T11:20:59.151Z,9.90
2023-04-07T11:23:47.976Z,10.10
2023-04-07T11:26:41.633Z,10.60
2023-04-07T11:29:33.009Z,10.90
2023-04-07T11:32:29.914Z,11.00
2023-04-07T11:35:17.681Z,10.60
2023-04-07T11:38:05.487Z,10.50
2023-04-07T11:40:53.993Z,10.60
2023-04-07T11:43:44.536Z,10.50
2023-04-07T11:46:32.214Z,10.60
2023-04-07T11:49:19.737Z,10.40
2023-04-07T11:52:07.620Z,10.30
2023-04-07T11:54:55.358Z,10.80
2023-04-07T11:57:42.936Z,10.80
2023-04-07T12:00:30.564Z,10.40
2023-04-07T12:03:18.905Z,10.40
2023-04-07T12:06:07.137Z,10.30
2023-04-07T12:08:54.688Z,10.20
2023-04-07T12:11:50.818Z,10.30
2023-04-07T12:14:38.376Z,10.70
2023-04-07T12:17:27.619Z,11.20
2023-04-07T12:20:16.348Z,10.90
2023-04-07T12:23:04.015Z,11.20
2023-04-07T12:25:52.410Z,11.00
2023-04-07T12:28:39.900Z,11.10
2023-04-07T12:31:27.999Z,12.10
2023-04-07T12:34:15.813Z,12.50
2023-04-07T12:37:03.543Z,12.40
2023-04-07T12:39:51.014Z,12.50
2023-04-07T12:42:38.829Z,12.70
2023-04-07T12:45:26.470Z,12.50
2023-04-07T12:48:13.950Z,12.10
2023-04-07T12:51:01.369Z,12.50
2023-04-07T12:53:49.039Z,12.80
2023-04-07T12:56:37.073Z,13.60
2023-04-07T12:59:24.593Z,14.00
2023-04-07T13:02:13.832Z,15.00
2023-04-07T13:05:01.494Z,15.70
2023-04-07T13:07:49.901Z,16.60
2023-04-07T13:10:37.497Z,18.30
2023-04-07T13:13:24.943Z,19.10
2023-04-07T13:16:12.447Z,19.80
2023-04-07T13:19:00.556Z,20.50
2023-04-07T13:21:48.549Z,21.00
2023-04-07T13:24:36.619Z,19.80
2023-04-07T13:27:24.253Z,17.60
2023-04-07T13:30:12.306Z,15.70
2023-04-07T13:33:00.334Z,14.70
2023-04-07T13:35:47.817Z,13.40
2023-04-07T13:38:35.231Z,13.20
2023-04-07T13:41:23.089Z,13.60
2023-04-07T13:44:10.562Z,14.40
2023-04-07T13:46:58.898Z,15.40
2023-04-07T13:49:47.900Z,17.40
2023-04-07T13:52:35.711Z,18.30
2023-04-07T13:55:23.393Z,17.80
2023-04-07T13:58:10.833Z,17.60
2023-04-07T14:00:58.818Z,16.60
2023-04-07T14:03:46.738Z,16.30
2023-04-07T14:06:36.579Z,16.30
2023-04-07T14:09:24.087Z,16.20
2023-04-07T14:12:11.682Z,16.10
2023-04-07T14:14:59.075Z,15.70
2023-04-07T14:17:46.547Z,15.10
2023-04-07T14:20:34.096Z,14.80
2023-04-07T14:23:30.276Z,14.50
2023-04-07T14:26:22.018Z,14.40
2023-04-07T14:29:09.569Z,14.10
2023-04-07T14:31:57.017Z,14.10
2023-04-07T14:34:44.495Z,14.20
2023-04-07T14:37:31.937Z,14.20
2023-04-07T14:40:21.206Z,14.30
2023-04-07T14:43:10.252Z,14.00
2023-04-07T14:45:57.834Z,14.40
2023-04-07T14:48:46.354Z,15.00
2023-04-07T14:51:34.359Z,16.00
2023-04-07T14:54:21.949Z,17.90
2023-04-07T14:57:09.604Z,19.40
2023-04-07T14:59:57.168Z,19.70
2023-04-07T15:02:44.774Z,20.40
2023-04-07T15:05:32.630Z,20.30
2023-04-07T15:08:20.358Z,19.30
2023-04-07T15:11:08.414Z,17.40
2023-04-07T15:13:56.046Z,17.20
2023-04-07T15:16:44.047Z,17.20
2023-04-07T15:19:31.618Z,15.90
2023-04-07T15:22:19.123Z,15.50
2023-04-07T15:25:07.231Z,14.80
2023-04-07T15:27:54.667Z,14.60
2023-04-07T15:30:42.927Z,14.50
2023-04-07T15:33:30.461Z,14.60
2023-04-07T15:36:17.811Z,14.90
2023-04-07T15:39:06.010Z,15.00
2023-04-07T15:41:53.417Z,14.70
2023-04-07T15:44:40.916Z,14.70
2023-04-07T15:47:28.423Z,14.20
2023-04-07T15:50:16.063Z,13.40
2023-04-07T15:53:07.106Z,13.50
2023-04-07T15:55:55.954Z,13.40
2023-04-07T15:58:45.206Z,13.70
2023-04-07T16:01:32.895Z,14.10
2023-04-07T16:04:20.828Z,13.70
2023-04-07T16:07:08.363Z,13.40
2023-04-07T16:09:55.914Z,13.40
2023-04-07T16:12:43.448Z,13.20
2023-04-07T16:15:39.944Z,13.20
2023-04-07T16:18:30.278Z,12.90
2023-04-07T16:21:18.371Z,12.70
2023-04-07T16:24:06.233Z,12.50
2023-04-07T16:26:55.713Z,12.40
2023-04-07T16:29:43.530Z,12.20
2023-04-07T16:32:31.842Z,12.30
2023-04-07T16:35:19.377Z,12.10
2023-04-07T16:38:06.893Z,12.00
2023-04-07T16:41:03.916Z,12.00
2023-04-07T16:43:52.279Z,12.00
2023-04-07T16:46:39.827Z,11.80
2023-04-07T16:49:27.480Z,11.80
2023-04-07T16:52:14.944Z,12.00
2023-04-07T16:55:02.647Z,12.10
2023-04-07T16:57:50.414Z,12.00
2023-04-07T17:00:37.882Z,11.90
2023-04-07T17:03:25.492Z,11.70
2023-04-07T17:06:14.392Z,11.40
2023-04-07T17:09:01.927Z,11.40
2023-04-07T17:11:49.817Z,11.40
2023-04-07T17:14:37.431Z,11.30
2023-04-07T17:17:25.031Z,11.20
2023-04-07T17:20:13.364Z,11.10
2023-04-07T17:23:00.906Z,11.20
2023-04-07T17:25:51.673Z,11.30
2023-04-07T17:28:39.238Z,11.20
2023-04-07T17:31:26.755Z,11.20
2023-04-07T17:34:14.439Z,11.00
2023-04-07T17:37:02.482Z,10.90
2023-04-07T17:39:50.101Z,10.80
2023-04-07T17:42:38.734Z,10.60
2023-04-07T17:45:26.177Z,10.40
2023-04-07T17:48:15.708Z,10.30
2023-04-07T17:51:03.359Z,10.20
2023-04-07T17:53:51.819Z,10.10
2023-04-07T17:56:39.976Z,10.10
2023-04-07T17:59:27.531Z,10.20
2023-04-07T18:02:15.173Z,10.20
2023-04-07T18:05:03.265Z,10.10
2023-04-07T18:07:50.920Z,10.20
2023-04-07T18:10:38.743Z,10.20
2023-04-07T18:13:26.215Z,10.30
2023-04-07T18:16:18.178Z,10.10
2023-04-07T18:19:08.132Z,10.20
2023-04-07T18:21:55.864Z,10.10
2023-04-07T18:24:43.381Z,10.10
2023-04-07T18:27:31.061Z,10.00
2023-04-07T18:30:18.567Z,9.90
2023-04-07T18:33:06.157Z,9.70
2023-04-07T18:35:53.647Z,9.80
2023-04-07T18:38:41.181Z,9.80
2023-04-07T18:41:28.637Z,9.90
2023-04-07T18:44:16.021Z,9.90
2023-04-07T18:47:03.700Z,10.00
2023-04-07T18:49:53.131Z,9.80
2023-04-07T18:52:40.616Z,9.50
2023-04-07T18:55:28.101Z,9.60
2023-04-07T18:58:16.102Z,9.80
2023-04-07T19:01:03.693Z,9.50
2023-04-07T19:03:51.494Z,9.10
2023-04-07T19:06:39.172Z,9.00
2023-04-07T19:09:26.661Z,9.00
2023-04-07T19:12:14.020Z,8.90
2023-04-07T19:15:01.488Z,8.70
2023-04-07T19:17:49.513Z,8.80
2023-04-07T19:20:37.066Z,8.60
2023-04-07T19:23:24.593Z,8.80
2023-04-07T19:26:15.091Z,8.60
2023-04-07T19:29:03.507Z,8.70
2023-04-07T19:31:52.931Z,8.80
2023-04-07T19:34:40.693Z,8.50
2023-04-07T19:37:28.158Z,8.50
2023-04-07T19:40:16.596Z,8.40
2023-04-07T19:43:04.018Z,8.40
2023-04-07T19:45:51.440Z,8.30
2023-04-07T19:48:39.959Z,8.50
2023-04-07T19:51:27.600Z,8.70
2023-04-07T19:54:15.077Z,8.60
2023-04-07T19:57:03.033Z,8.70
2023-04-07T19:59:50.563Z,8.50
2023-04-07T20:02:38.217Z,8.40
2023-04-07T20:05:26.144Z,8.40
2023-04-07T20:08:13.616Z,8.30
2023-04-07T20:11:01.018Z,8.10
2023-04-07T20:13:49.455Z,8.10
2023-04-07T20:16:37.280Z,8.30
2023-04-07T20:19:24.821Z,8.30
2023-04-07T20:22:12.338Z,8.40
2023-04-07T20:24:59.876Z,8.40
2023-04-07T20:27:49.184Z,8.60
2023-04-07T20:30:37.048Z,8.80
2023-04-07T20:33:24.560Z,8.70
2023-04-07T20:36:12.107Z,8.70
2023-04-07T20:38:59.582Z,8.80
2023-04-07T20:41:47.710Z,8.80
2023-04-07T20:44:35.125Z,8.90
2023-04-07T20:47:23.005Z,8.90
2023-04-07T20:50:10.604Z,8.90
2023-04-07T20:52:58.025Z,8.80
2023-04-07T20:55:45.844Z,8.90
2023-04-07T20:58:33.353Z,8.80
2023-04-07T21:01:20.982Z,8.90
2023-04-07T21:04:09.509Z,8.80
2023-04-07T21:06:57.039Z,8.70
2023-04-07T21:09:44.608Z,8.80
2023-04-07T21:12:32.051Z,8.70
2023-04-07T21:15:19.583Z,8.70
2023-04-07T21:18:07.044Z,8.70
2023-04-07T21:20:57.669Z,8.70
2023-04-07T21:23:45.333Z,8.60
2023-04-07T21:26:32.757Z,8.60
2023-04-07T21:29:21.670Z,8.50
2023-04-07T21:32:09.225Z,8.60
2023-04-07T21:34:56.634Z,8.50
2023-04-07T21:37:44.154Z,8.50
2023-04-07T21:40:31.658Z,8.50
2023-04-07T21:43:19.135Z,8.60
2023-04-07T21:46:06.622Z,8.40
2023-04-07T21:48:54.077Z,8.50
2023-04-07T21:51:42.089Z,8.50
2023-04-07T21:54:29.496Z,8.60
2023-04-07T21:57:16.926Z,8.50
2023-04-07T22:00:05.230Z,8.40
2023-04-07T22:02:53.084Z,8.50
2023-04-07T22:05:40.909Z,8.70
2023-04-07T22:08:28.463Z,8.80
2023-04-07T22:11:16.092Z,8.90
2023-04-07T22:14:03.643Z,9.00
2023-04-07T22:16:52.254Z,8.90
2023-04-07T22:19:39.694Z,9.00
2023-04-07T22:22:27.158Z,9.00
2023-04-07T22:25:14.544Z,9.00
2023-04-07T22:28:02.055Z,9.10
2023-04-07T22:30:49.501Z,9.20
2023-04-07T22:33:37.337Z,9.40
2023-04-07T22:36:24.757Z,9.40
2023-04-07T22:39:12.409Z,9.30
2023-04-07T22:41:59.803Z,9.30
2023-04-07T22:44:47.225Z,9.20
2023-04-07T22:47:34.813Z,9.10
2023-04-07T22:50:22.296Z,9.10
2023-04-07T22:53:09.744Z,9.00
2023-04-07T22:55:57.226Z,8.60
2023-04-07T22:58:44.667Z,8.70
2023-04-07T23:01:32.419Z,8.90
2023-04-07T23:04:21.477Z,8.90
2023-04-07T23:07:09.085Z,9.00
2023-04-07T23:09:56.515Z,9.00
2023-04-07T23:12:43.930Z,9.00
2023-04-07T23:15:33.532Z,9.10
2023-04-07T23:18:21.078Z,9.30
2023-04-07T23:21:09.772Z,9.30
2023-04-07T23:23:57.328Z,9.20
2023-04-07T23:26:44.803Z,9.30
2023-04-07T23:29:32.537Z,9.20
2023-04-07T23:32:20.090Z,9.10
2023-04-07T23:35:08.145Z,8.90
2023-04-07T23:37:55.634Z,8.70
2023-04-07T23:40:43.068Z,8.70
2023-04-07T23:43:30.511Z,9.00
2023-04-07T23:46:17.975Z,9.10
2023-04-07T23:49:05.625Z,9.00
2023-04-07T23:51:53.030Z,9.10
2023-04-07T23:54:40.492Z,9.00
2023-04-07T23:57:28.373Z,9.00
